Time;durP1;ratioP1;P1;durP2;ratioP2;P2;SDS_P1;SDS_P2;PMS_P1;PMS_P2;Temp;Humidity;BMP_temperature;BMP_pressure;BME280_temperature;BME280_humidity;BME280_pressure;Samples;Min_cycle;Max_cycle;Signal;HPM_P1;HPM_P2
2022/08/05 00:00:04;;;;;;;1999.90;999.90;;;17.70;99.90;;;;;;5114410;27;20046;-74
2022/08/05 00:02:30;;;;;;;1999.90;999.90;;;17.70;99.90;;;;;;5115867;27;20043;-74
2022/08/05 00:04:55;;;;;;;1999.90;999.90;;;17.70;99.90;;;;;;5129298;27;20054;-74
2022/08/05 00:07:21;;;;;;;1999.90;999.90;;;17.70;99.90;;;;;;5129918;27;20175;-74
2022/08/05 00:09:46;;;;;;;1999.90;999.90;;;17.70;99.90;;;;;;5108244;27;20392;-73
2022/08/05 00:12:12;;;;;;;1999.90;999.90;;;17.60;99.90;;;;;;5128482;27;20035;-74
2022/08/05 00:14:38;;;;;;;1999.90;999.90;;;17.60;99.90;;;;;;5131908;27;20046;-74
2022/08/05 00:17:03;;;;;;;1999.90;999.90;;;17.60;99.90;;;;;;5120655;27;20038;-74
2022/08/05 00:19:29;;;;;;;1999.90;999.90;;;17.60;99.90;;;;;;5126726;27;20039;-74
2022/08/05 00:21:55;;;;;;;1999.90;999.90;;;17.60;99.90;;;;;;5091683;28;20035;-73
2022/08/05 00:24:21;;;;;;;1999.90;999.90;;;17.60;99.90;;;;;;5085935;27;20099;-74
2022/08/05 00:26:46;;;;;;;1999.90;999.90;;;17.60;99.90;;;;;;5129147;27;20380;-74
2022/08/05 00:29:12;;;;;;;1999.90;999.90;;;17.60;99.90;;;;;;5119441;27;20044;-74
2022/08/05 00:31:37;;;;;;;1999.90;999.90;;;17.50;99.90;;;;;;5123378;27;20054;-74
2022/08/05 00:34:04;;;;;;;1999.90;999.90;;;17.60;99.90;;;;;;5117808;27;20379;-74
2022/08/05 00:36:30;;;;;;;1999.90;999.90;;;17.50;99.90;;;;;;5118731;27;20031;-74
2022/08/05 00:38:55;;;;;;;1999.90;999.90;;;17.50;99.90;;;;;;5122073;27;20043;-74
2022/08/05 00:41:30;;;;;;;1999.90;999.90;;;17.50;99.90;;;;;;5128106;27;20062;-74
2022/08/05 00:43:56;;;;;;;1999.90;999.90;;;17.40;99.90;;;;;;5131096;27;20486;-74
2022/08/05 00:46:22;;;;;;;1999.90;999.90;;;17.40;99.90;;;;;;5119074;27;20415;-74
2022/08/05 00:48:48;;;;;;;1999.90;999.90;;;17.40;99.90;;;;;;5110431;27;20039;-74
2022/08/05 00:51:13;;;;;;;1999.90;999.90;;;17.40;99.90;;;;;;5129410;27;20118;-74
2022/08/05 00:53:39;;;;;;;1999.90;999.90;;;17.40;99.90;;;;;;5110179;27;20102;-74
2022/08/05 00:56:05;;;;;;;1999.90;999.90;;;17.40;99.90;;;;;;5139431;27;20039;-74
2022/08/05 00:58:30;;;;;;;1999.90;999.90;;;17.40;99.90;;;;;;5115247;27;20034;-74
2022/08/05 01:00:56;;;;;;;1999.90;999.90;;;17.40;99.90;;;;;;5130226;27;20031;-73
2022/08/05 01:03:23;;;;;;;1999.90;999.90;;;17.40;99.90;;;;;;5121923;27;20043;-73
2022/08/05 01:05:51;;;;;;;1999.90;999.90;;;17.40;99.90;;;;;;5104543;27;20087;-74
2022/08/05 01:08:18;;;;;;;1999.90;999.90;;;17.40;99.90;;;;;;5126415;27;20382;-74
2022/08/05 01:10:47;;;;;;;1999.90;999.90;;;17.40;99.90;;;;;;5140120;27;20038;-74
2022/08/05 01:13:47;;;;;;;1999.90;999.90;;;17.40;99.90;;;;;;5130061;27;20046;-74
2022/08/05 01:16:23;;;;;;;1999.90;999.90;;;17.40;99.90;;;;;;5124851;27;20081;-74
2022/08/05 01:18:53;;;;;;;1999.90;999.90;;;17.40;99.90;;;;;;5127495;27;20043;-74
2022/08/05 01:21:24;;;;;;;1999.90;999.90;;;17.40;99.90;;;;;;5105063;28;20042;-74
2022/08/05 01:24:26;;;;;;;1999.90;999.90;;;17.40;99.90;;;;;;5120034;27;20085;-74
2022/08/05 01:27:01;;;;;;;1999.90;999.90;;;17.30;99.90;;;;;;5099651;28;20382;-74
2022/08/05 01:29:42;;;;;;;1999.90;999.90;;;17.30;99.90;;;;;;5114196;27;20384;-74
2022/08/05 01:32:10;;;;;;;1999.90;999.90;;;17.30;99.90;;;;;;5118067;27;20050;-74
2022/08/05 01:34:59;;;;;;;1999.90;999.90;;;17.30;99.90;;;;;;5132830;27;20106;-74
2022/08/05 01:37:35;;;;;;;1999.90;999.90;;;17.30;99.90;;;;;;5129630;27;20085;-74
2022/08/05 01:40:04;;;;;;;1999.90;999.90;;;17.30;99.90;;;;;;5127648;27;20049;-74
2022/08/05 01:42:31;;;;;;;1999.90;999.90;;;17.40;99.90;;;;;;5127771;28;20506;-74
2022/08/05 01:45:00;;;;;;;1999.90;999.90;;;17.30;99.90;;;;;;5133465;27;20034;-73
2022/08/05 01:47:28;;;;;;;1999.90;999.90;;;17.40;99.90;;;;;;5132147;27;20043;-74
2022/08/05 01:49:56;;;;;;;1999.90;999.90;;;17.40;99.90;;;;;;5110932;27;20049;-74
2022/08/05 01:52:24;;;;;;;1999.90;999.90;;;17.40;99.90;;;;;;5129216;27;20119;-74
2022/08/05 01:54:57;;;;;;;1999.90;999.90;;;17.40;99.90;;;;;;5138062;27;20031;-74
2022/08/05 01:57:32;;;;;;;1999.90;999.90;;;17.40;99.90;;;;;;5120200;27;20110;-74
2022/08/05 02:00:00;;;;;;;1999.90;999.90;;;17.40;99.90;;;;;;5130387;27;20027;-74
2022/08/05 02:02:28;;;;;;;1999.90;999.90;;;17.40;99.90;;;;;;5110680;28;20065;-74
2022/08/05 02:04:57;;;;;;;1999.90;999.90;;;17.50;99.90;;;;;;5129437;27;20110;-74
2022/08/05 02:07:22;;;;;;;1999.90;999.90;;;17.50;99.90;;;;;;5108668;28;20043;-74
2022/08/05 02:09:49;;;;;;;1999.90;999.90;;;17.40;99.90;;;;;;5139917;27;20038;-74
2022/08/05 02:12:33;;;;;;;1999.90;999.90;;;17.40;99.90;;;;;;5111695;27;20114;-74
2022/08/05 02:15:12;;;;;;;1999.90;999.90;;;17.40;99.90;;;;;;5117624;28;20039;-74
2022/08/05 02:17:49;;;;;;;1999.90;999.90;;;17.40;99.90;;;;;;5132328;27;20042;-74
2022/08/05 02:20:20;;;;;;;1999.90;999.90;;;17.30;99.90;;;;;;5120798;27;20039;-74
2022/08/05 02:22:49;;;;;;;1999.90;999.90;;;17.30;99.90;;;;;;5117846;27;20066;-74
2022/08/05 02:25:24;;;;;;;1999.90;999.90;;;17.30;99.90;;;;;;5142975;27;20027;-74
2022/08/05 02:27:50;;;;;;;1999.90;999.90;;;17.20;99.90;;;;;;5131573;27;20050;-74
2022/08/05 02:30:17;;;;;;;1999.90;999.90;;;17.20;99.90;;;;;;5136722;27;20494;-74
2022/08/05 02:32:48;;;;;;;1999.90;999.90;;;17.10;99.90;;;;;;5112417;27;20427;-74
2022/08/05 02:35:18;;;;;;;1999.90;999.90;;;17.10;99.90;;;;;;5128518;27;20035;-74
2022/08/05 02:37:45;;;;;;;1999.90;999.90;;;17.10;99.90;;;;;;5141780;27;20091;-73
2022/08/05 02:40:13;;;;;;;1999.90;999.90;;;17.10;99.90;;;;;;5114499;27;20067;-74
2022/08/05 02:42:39;;;;;;;1999.90;999.90;;;17.00;99.90;;;;;;5124074;27;20040;-74
2022/08/05 02:45:08;;;;;;;1999.90;999.90;;;17.00;99.90;;;;;;5132437;27;20493;-74
2022/08/05 02:47:35;;;;;;;1999.90;999.90;;;17.00;99.90;;;;;;5130884;27;20034;-74
2022/08/05 02:50:01;;;;;;;1999.90;999.90;;;17.00;99.90;;;;;;5117793;27;20085;-74
2022/08/05 02:52:28;;;;;;;1999.90;999.90;;;17.00;99.90;;;;;;5131021;27;20084;-74
2022/08/05 02:54:55;;;;;;;1999.90;999.90;;;17.00;99.90;;;;;;5133806;27;20095;-74
2022/08/05 02:57:23;;;;;;;1999.90;999.90;;;17.00;99.90;;;;;;5135028;27;20043;-74
2022/08/05 02:59:50;;;;;;;1999.90;999.90;;;17.00;99.90;;;;;;5138871;27;20047;-74
2022/08/05 03:02:18;;;;;;;1999.90;999.90;;;16.90;99.90;;;;;;5132827;27;20039;-74
2022/08/05 03:04:45;;;;;;;1999.90;999.90;;;16.90;99.90;;;;;;5131726;27;20538;-74
2022/08/05 03:07:11;;;;;;;1999.90;999.90;;;16.90;99.90;;;;;;5133888;27;20047;-74
2022/08/05 03:09:40;;;;;;;1999.90;999.90;;;16.90;99.90;;;;;;5113128;27;20070;-74
2022/08/05 03:12:07;;;;;;;1999.90;999.90;;;16.80;99.90;;;;;;5139986;27;20763;-74
2022/08/05 03:14:33;;;;;;;1999.90;999.90;;;16.80;99.90;;;;;;5138849;27;20042;-74
2022/08/05 03:16:58;;;;;;;1999.90;999.90;;;16.80;99.90;;;;;;5144766;27;20510;-74
2022/08/05 03:19:24;;;;;;;1999.90;999.90;;;16.80;99.90;;;;;;5122450;27;20081;-74
2022/08/05 03:21:50;;;;;;;1999.90;999.90;;;16.70;99.90;;;;;;5097752;27;20114;-74
2022/08/05 03:24:20;;;;;;;1999.90;999.90;;;16.70;99.90;;;;;;5115743;27;20039;-74
2022/08/05 03:26:46;;;;;;;1999.90;999.90;;;16.70;99.90;;;;;;5132896;27;20039;-74
2022/08/05 03:29:12;;;;;;;1999.90;999.90;;;16.70;99.90;;;;;;5127755;27;20095;-74
2022/08/05 03:31:38;;;;;;;1999.90;999.90;;;16.60;99.90;;;;;;5130195;27;20043;-74
2022/08/05 03:34:05;;;;;;;1999.90;999.90;;;16.60;99.90;;;;;;5137287;27;20039;-74
2022/08/05 03:36:31;;;;;;;1999.90;999.90;;;16.60;99.90;;;;;;5132472;27;20497;-74
2022/08/05 03:38:57;;;;;;;1999.90;999.90;;;16.60;99.90;;;;;;5129161;27;20043;-74
2022/08/05 03:41:22;;;;;;;1999.90;999.90;;;16.50;99.90;;;;;;5133772;27;20043;-74
2022/08/05 03:43:48;;;;;;;1999.90;999.90;;;16.50;99.90;;;;;;5094964;27;20047;-74
2022/08/05 03:46:14;;;;;;;1999.90;999.90;;;16.50;99.90;;;;;;5130068;27;20479;-74
2022/08/05 03:48:39;;;;;;;1999.90;999.90;;;16.40;99.90;;;;;;5139397;27;20074;-74
2022/08/05 03:51:16;;;;;;;1999.90;999.90;;;16.40;99.90;;;;;;5130375;27;20114;-74
2022/08/05 03:54:27;;;;;;;1999.90;999.90;;;16.40;99.90;;;;;;5136183;27;20043;-74
2022/08/05 03:56:54;;;;;;;1999.90;999.90;;;16.40;99.90;;;;;;5098956;27;20518;-74
2022/08/05 03:59:25;;;;;;;1999.90;999.90;;;16.40;99.90;;;;;;5125986;27;20554;-74
2022/08/05 04:01:52;;;;;;;1999.90;999.90;;;16.40;99.90;;;;;;5118149;27;20030;-74
2022/08/05 04:04:19;;;;;;;1999.90;999.90;;;16.40;99.90;;;;;;5136202;27;20045;-74
2022/08/05 04:06:46;;;;;;;1999.90;999.90;;;16.40;99.90;;;;;;5131323;27;20482;-74
2022/08/05 04:09:13;;;;;;;1999.90;999.90;;;16.40;99.90;;;;;;5128000;27;20039;-74
2022/08/05 04:11:39;;;;;;;1999.90;999.90;;;16.40;99.90;;;;;;5138258;27;20402;-74
2022/08/05 04:14:06;;;;;;;1999.90;999.90;;;16.40;99.90;;;;;;5140581;27;20027;-74
2022/08/05 04:16:34;;;;;;;1999.90;999.90;;;16.30;99.90;;;;;;5135087;27;20104;-74
2022/08/05 04:19:02;;;;;;;1999.90;999.90;;;16.30;99.90;;;;;;5129906;27;20436;-74
2022/08/05 04:21:28;;;;;;;1999.90;999.90;;;16.30;99.90;;;;;;5131692;27;20566;-74
2022/08/05 04:23:55;;;;;;;1999.90;999.90;;;16.30;99.90;;;;;;5089964;27;20035;-74
2022/08/05 04:26:20;;;;;;;1999.90;999.90;;;16.20;99.90;;;;;;5094202;27;20039;-74
2022/08/05 04:28:46;;;;;;;1999.90;999.90;;;16.30;99.90;;;;;;5093376;27;20418;-74
2022/08/05 04:31:11;;;;;;;1999.90;999.90;;;16.20;99.90;;;;;;5116471;27;20038;-74
2022/08/05 04:33:37;;;;;;;1999.90;999.90;;;16.20;99.90;;;;;;5099636;27;20452;-74
2022/08/05 04:36:03;;;;;;;1999.90;999.90;;;16.20;99.90;;;;;;5139844;27;20046;-74
2022/08/05 04:38:28;;;;;;;1999.90;999.90;;;16.20;99.90;;;;;;5096474;27;20049;-74
2022/08/05 04:40:54;;;;;;;1999.90;999.90;;;16.20;99.90;;;;;;5107773;27;20047;-74
2022/08/05 04:43:20;;;;;;;1999.90;999.90;;;16.20;99.90;;;;;;5127315;27;20486;-74
2022/08/05 04:45:45;;;;;;;1999.90;999.90;;;16.20;99.90;;;;;;5094980;27;20035;-74
2022/08/05 04:48:14;;;;;;;1999.90;999.90;;;16.20;99.90;;;;;;5124422;27;20091;-74
2022/08/05 04:50:45;;;;;;;1999.90;999.90;;;16.20;99.90;;;;;;5121129;27;20047;-74
2022/08/05 04:53:12;;;;;;;1999.90;999.90;;;16.20;99.90;;;;;;5111254;27;20039;-74
2022/08/05 04:55:39;;;;;;;1999.90;999.90;;;16.30;99.90;;;;;;5131399;27;20043;-74
2022/08/05 04:58:07;;;;;;;1999.90;999.90;;;16.30;99.90;;;;;;5104326;27;21425;-74
2022/08/05 05:00:33;;;;;;;1999.90;999.90;;;16.30;99.90;;;;;;5110884;27;20049;-74
2022/08/05 05:02:59;;;;;;;1999.90;999.90;;;16.30;99.90;;;;;;5126217;27;20039;-74
2022/08/05 05:05:25;;;;;;;1999.90;999.90;;;16.40;99.90;;;;;;5129660;27;20038;-74
2022/08/05 05:07:51;;;;;;;1999.90;999.90;;;16.40;99.90;;;;;;5136786;27;20126;-74
2022/08/05 05:10:16;;;;;;;1999.90;999.90;;;16.40;99.90;;;;;;5131978;27;20180;-74
2022/08/05 05:12:42;;;;;;;1999.90;999.90;;;16.40;99.90;;;;;;5130917;27;20406;-74
2022/08/05 05:15:08;;;;;;;1999.90;999.90;;;16.50;99.90;;;;;;5124488;27;20039;-74
2022/08/05 05:17:45;;;;;;;1999.90;999.90;;;16.50;99.90;;;;;;5132695;27;20032;-74
2022/08/05 05:20:12;;;;;;;1999.90;999.90;;;16.50;99.90;;;;;;5104858;27;20173;-74
2022/08/05 05:22:38;;;;;;;1999.90;999.90;;;16.50;99.90;;;;;;5130945;27;20112;-74
2022/08/05 05:25:04;;;;;;;1999.90;999.90;;;16.50;99.90;;;;;;5128717;27;20031;-74
2022/08/05 05:27:31;;;;;;;1999.90;999.90;;;16.50;99.90;;;;;;5129670;27;20062;-74
2022/08/05 05:29:57;;;;;;;1999.90;999.90;;;16.40;99.90;;;;;;5124578;27;20407;-74
2022/08/05 05:32:23;;;;;;;1999.90;999.90;;;16.50;99.90;;;;;;5136293;27;20046;-74
2022/08/05 05:34:48;;;;;;;1999.90;999.90;;;16.50;99.90;;;;;;5130746;27;20038;-74
2022/08/05 05:37:14;;;;;;;1999.90;999.90;;;16.40;99.90;;;;;;5123840;27;20043;-74
2022/08/05 05:39:40;;;;;;;1999.90;999.90;;;16.40;99.90;;;;;;5117045;27;20172;-74
2022/08/05 05:42:06;;;;;;;1999.90;999.90;;;16.40;99.90;;;;;;5137807;27;20494;-74
2022/08/05 05:44:32;;;;;;;1999.90;999.90;;;16.40;99.90;;;;;;5132910;27;20049;-74
2022/08/05 05:46:58;;;;;;;1999.90;999.90;;;16.30;99.90;;;;;;5129147;27;20163;-74
2022/08/05 05:49:25;;;;;;;1999.90;999.90;;;16.30;99.90;;;;;;5108594;27;20126;-74
2022/08/05 05:51:51;;;;;;;1999.90;999.90;;;16.30;99.90;;;;;;5113827;27;20181;-74
2022/08/05 05:54:17;;;;;;;1999.90;999.90;;;16.30;99.90;;;;;;5119199;27;20059;-74
2022/08/05 05:56:43;;;;;;;1999.90;999.90;;;16.30;99.90;;;;;;5113848;27;20138;-74
2022/08/05 05:59:09;;;;;;;1999.90;999.90;;;16.30;99.90;;;;;;5134913;27;20096;-74
2022/08/05 06:01:37;;;;;;;1999.90;999.90;;;16.60;99.90;;;;;;5140696;27;20122;-74
2022/08/05 06:04:03;;;;;;;1999.90;999.90;;;16.80;99.90;;;;;;5131923;27;20046;-74
2022/08/05 06:06:29;;;;;;;1999.90;999.90;;;17.10;99.90;;;;;;5142207;27;20035;-74
2022/08/05 06:08:54;;;;;;;1999.90;999.90;;;17.40;99.90;;;;;;5117963;27;20183;-74
2022/08/05 06:11:20;;;;;;;1999.90;999.90;;;17.50;99.90;;;;;;5127095;27;20507;-74
2022/08/05 06:13:45;;;;;;;1999.90;999.90;;;17.50;99.90;;;;;;5137156;27;20039;-74
2022/08/05 06:16:11;;;;;;;1999.90;999.90;;;17.60;99.90;;;;;;5114626;27;20131;-74
2022/08/05 06:18:36;;;;;;;1999.90;999.90;;;17.60;99.90;;;;;;5130865;27;20517;-73
2022/08/05 06:21:03;;;;;;;1999.90;999.90;;;17.60;99.90;;;;;;5144430;27;20035;-74
2022/08/05 06:23:29;;;;;;;1999.90;999.90;;;17.70;99.90;;;;;;5137647;27;20043;-74
2022/08/05 06:25:54;;;;;;;1999.90;999.90;;;17.70;99.90;;;;;;5143422;27;22055;-74
2022/08/05 06:28:20;;;;;;;1999.90;999.90;;;17.80;99.90;;;;;;5116305;27;20449;-74
2022/08/05 06:30:46;;;;;;;1999.90;999.90;;;18.00;99.90;;;;;;5137703;27;20043;-74
2022/08/05 06:33:11;;;;;;;1999.90;999.90;;;18.70;99.90;;;;;;5144915;27;20462;-74
2022/08/05 06:35:37;;;;;;;1999.90;999.90;;;19.70;99.90;;;;;;5133796;27;20043;-75
2022/08/05 06:38:03;;;;;;;1999.90;999.90;;;20.90;99.90;;;;;;5146135;27;20119;-74
2022/08/05 06:40:28;;;;;;;1999.90;999.90;;;21.80;99.90;;;;;;5133246;27;20103;-74
2022/08/05 06:42:54;;;;;;;1999.90;999.90;;;21.80;99.90;;;;;;5092561;27;20035;-75
2022/08/05 06:45:21;;;;;;;1999.90;999.90;;;21.60;99.90;;;;;;5124567;27;20035;-74
2022/08/05 06:47:47;;;;;;;1999.90;999.90;;;21.20;99.90;;;;;;5121775;27;20039;-74
2022/08/05 06:50:12;;;;;;;1999.90;999.90;;;20.80;99.90;;;;;;5126312;27;20209;-74
2022/08/05 06:52:38;;;;;;;1999.90;999.90;;;20.60;99.90;;;;;;5133215;27;20042;-74
2022/08/05 06:55:05;;;;;;;1999.90;999.90;;;20.90;99.90;;;;;;5137254;27;20045;-74
2022/08/05 06:57:30;;;;;;;1999.90;999.90;;;21.70;99.90;;;;;;5145412;27;20090;-74
2022/08/05 06:59:56;;;;;;;1999.90;999.90;;;22.40;99.90;;;;;;5112050;27;20039;-74
2022/08/05 07:02:21;;;;;;;1999.90;999.90;;;23.00;99.90;;;;;;5136837;27;20043;-75
2022/08/05 07:04:47;;;;;;;1999.90;999.90;;;23.80;99.90;;;;;;5112987;27;20038;-74
2022/08/05 07:07:13;;;;;;;1999.90;999.90;;;23.70;99.90;;;;;;5136819;27;20049;-74
2022/08/05 07:09:38;;;;;;;1999.90;999.90;;;23.10;99.90;;;;;;5126430;27;20054;-74
2022/08/05 07:12:04;;;;;;;1999.90;999.90;;;22.90;99.90;;;;;;5134215;27;20031;-74
2022/08/05 07:17:15;;;;;;;1999.90;999.90;;;23.40;99.90;;;;;;5129417;27;20506;-74
2022/08/05 07:19:40;;;;;;;1999.90;999.90;;;23.80;99.90;;;;;;5127100;27;20055;-74
2022/08/05 07:22:06;;;;;;;1999.90;999.90;;;24.20;99.90;;;;;;5138242;27;20039;-74
2022/08/05 07:24:32;;;;;;;1999.90;999.90;;;24.50;99.90;;;;;;5133700;27;20208;-74
2022/08/05 07:26:57;;;;;;;1999.90;999.90;;;25.00;99.90;;;;;;5138806;27;20411;-74
2022/08/05 07:29:23;;;;;;;1999.90;999.90;;;24.70;99.90;;;;;;5091182;27;20090;-75
2022/08/05 07:31:48;;;;;;;1999.90;999.90;;;23.90;99.90;;;;;;5135948;27;20042;-74
2022/08/05 07:34:14;;;;;;;1999.90;999.90;;;23.10;99.90;;;;;;5124759;27;20031;-74
2022/08/05 07:36:40;;;;;;;1999.90;999.90;;;22.70;99.90;;;;;;5137083;27;20718;-74
2022/08/05 07:39:08;;;;;;;1999.90;999.90;;;22.50;99.90;;;;;;5129292;27;20043;-73
2022/08/05 07:41:34;;;;;;;1999.90;999.90;;;22.50;99.90;;;;;;5127427;27;20118;-74
2022/08/05 07:44:01;;;;;;;1999.90;999.90;;;22.00;99.90;;;;;;5131199;27;20361;-74
2022/08/05 07:46:30;;;;;;;1999.90;999.90;;;21.60;99.90;;;;;;5122160;27;20202;-74
2022/08/05 07:48:57;;;;;;;1999.90;999.90;;;21.30;99.90;;;;;;5131131;27;20039;-73
2022/08/05 07:51:23;;;;;;;1999.90;999.90;;;21.20;99.90;;;;;;5124783;27;20043;-74
2022/08/05 07:53:49;;;;;;;1999.90;999.90;;;21.30;99.90;;;;;;5108541;27;20058;-73
2022/08/05 07:56:14;;;;;;;1999.90;999.90;;;21.30;99.90;;;;;;5112945;27;20096;-74
2022/08/05 07:58:40;;;;;;;1999.90;999.90;;;21.20;99.90;;;;;;5129013;27;20185;-74
2022/08/05 08:01:06;;;;;;;1999.90;999.90;;;21.10;99.90;;;;;;5130991;27;20086;-74
2022/08/05 08:03:32;;;;;;;1999.90;999.90;;;21.10;99.90;;;;;;5130335;27;20038;-74
2022/08/05 08:05:57;;;;;;;1999.90;999.90;;;21.10;99.90;;;;;;5124555;27;20175;-74
2022/08/05 08:08:23;;;;;;;1999.90;999.90;;;21.10;99.90;;;;;;5112264;27;20038;-74
2022/08/05 08:10:49;;;;;;;1999.90;999.90;;;21.10;99.90;;;;;;5135492;27;20554;-73
2022/08/05 08:13:14;;;;;;;1999.90;999.90;;;21.20;99.90;;;;;;5105811;27;20050;-73
2022/08/05 08:15:40;;;;;;;1999.90;999.90;;;21.30;99.90;;;;;;5130426;27;20039;-74
2022/08/05 08:18:06;;;;;;;1999.90;999.90;;;21.50;99.90;;;;;;5139854;27;20039;-75
2022/08/05 08:20:31;;;;;;;1999.90;999.90;;;21.50;99.90;;;;;;5111432;27;20039;-74
2022/08/05 08:22:58;;;;;;;1999.90;999.90;;;21.40;99.90;;;;;;5112437;27;20061;-74
2022/08/05 08:25:27;;;;;;;1999.90;999.90;;;21.30;99.90;;;;;;5130550;27;20077;-74
2022/08/05 08:27:53;;;;;;;1999.90;999.90;;;20.90;99.90;;;;;;5123050;27;20091;-74
2022/08/05 08:30:19;;;;;;;1999.90;999.90;;;20.60;99.90;;;;;;5128441;27;20157;-74
2022/08/05 08:32:44;;;;;;;1999.90;999.90;;;20.30;99.90;;;;;;5115541;27;20486;-75
2022/08/05 08:35:10;;;;;;;1999.90;999.90;;;20.40;99.90;;;;;;5135420;27;20035;-74
2022/08/05 08:37:36;;;;;;;1999.90;999.90;;;20.60;99.90;;;;;;5139090;27;20188;-74
2022/08/05 08:40:02;;;;;;;1999.90;999.90;;;20.80;99.90;;;;;;5137245;27;20527;-74
2022/08/05 08:42:29;;;;;;;1999.90;999.90;;;21.10;99.90;;;;;;5099898;27;20050;-74
2022/08/05 08:44:56;;;;;;;1999.90;999.90;;;21.40;99.90;;;;;;5120973;27;20042;-74
2022/08/05 08:47:24;;;;;;;1999.90;999.90;;;21.80;99.90;;;;;;5135487;27;20043;-74
2022/08/05 08:49:52;;;;;;;1999.90;999.90;;;22.00;99.90;;;;;;5128690;27;20406;-74
2022/08/05 08:52:32;;;;;;;1999.90;999.90;;;22.70;99.90;;;;;;5135680;27;20066;-75
2022/08/05 08:54:58;;;;;;;1999.90;999.90;;;23.30;99.90;;;;;;5139231;27;20042;-74
2022/08/05 08:57:25;;;;;;;1999.90;999.90;;;23.10;99.90;;;;;;5124245;27;20042;-74
2022/08/05 08:59:51;;;;;;;1999.90;999.90;;;23.50;99.90;;;;;;5127766;27;20074;-74
2022/08/05 09:02:19;;;;;;;1999.90;999.90;;;24.20;99.90;;;;;;5110293;27;20057;-74
2022/08/05 09:04:46;;;;;;;1999.90;999.90;;;24.70;97.10;;;;;;5127561;27;20050;-74
2022/08/05 09:07:12;;;;;;;1999.90;999.90;;;24.90;96.80;;;;;;5128819;27;20384;-75
2022/08/05 09:09:37;;;;;;;1999.90;999.90;;;25.20;95.50;;;;;;5128015;27;20035;-74
2022/08/05 09:12:04;;;;;;;1999.90;999.90;;;25.10;94.10;;;;;;5127847;27;20077;-75
2022/08/05 09:14:34;;;;;;;1999.90;999.90;;;24.70;93.30;;;;;;5105390;27;20058;-74
2022/08/05 09:17:00;;;;;;;1999.90;999.90;;;24.70;93.60;;;;;;5092782;28;20050;-74
2022/08/05 09:19:26;;;;;;;1999.90;999.90;;;24.80;94.00;;;;;;5126779;27;20039;-74
2022/08/05 09:21:53;;;;;;;1999.90;999.90;;;24.40;93.20;;;;;;5127355;27;20091;-75
2022/08/05 09:24:18;;;;;;;1999.90;999.90;;;23.90;93.90;;;;;;5128127;27;20427;-74
2022/08/05 09:26:51;;;;;;;1999.90;999.90;;;24.10;92.70;;;;;;5109973;28;20160;-74
2022/08/05 09:29:17;;;;;;;1999.90;999.90;;;24.30;92.30;;;;;;5127523;27;20077;-74
2022/08/05 09:31:43;;;;;;;1999.90;999.90;;;24.60;91.20;;;;;;5130679;27;20475;-74
2022/08/05 09:34:09;;;;;;;1999.90;999.90;;;24.70;89.10;;;;;;5113649;27;20172;-73
2022/08/05 09:36:44;;;;;;;1999.90;999.90;;;24.70;89.10;;;;;;5134066;27;20424;-74
2022/08/05 09:39:12;;;;;;;1999.90;999.90;;;25.00;88.90;;;;;;5129836;27;20055;-73
2022/08/05 09:41:56;;;;;;;1999.90;999.90;;;25.40;89.80;;;;;;5117742;27;20492;-72
2022/08/05 09:44:37;;;;;;;1999.90;999.90;;;25.00;83.60;;;;;;5114120;27;20049;-74
2022/08/05 09:47:12;;;;;;;1999.90;999.90;;;24.50;86.60;;;;;;5106809;27;20391;-73
2022/08/05 09:49:46;;;;;;;1999.90;999.90;;;24.30;88.20;;;;;;5075424;28;20117;-73
2022/08/05 09:52:17;;;;;;;1999.90;999.90;;;24.50;87.20;;;;;;5112458;27;20051;-74
2022/08/05 09:55:04;;;;;;;1999.90;999.90;;;24.70;86.90;;;;;;5097302;28;20044;-73
2022/08/05 09:57:39;;;;;;;1999.90;999.90;;;24.90;85.40;;;;;;5116913;27;20045;-74
2022/08/05 10:00:13;;;;;;;1999.90;999.90;;;24.60;81.20;;;;;;5103090;28;20039;-74
2022/08/05 10:02:45;;;;;;;1999.90;999.90;;;24.60;80.10;;;;;;5123858;27;20031;-74
2022/08/05 10:05:11;;;;;;;1999.90;999.90;;;24.60;81.60;;;;;;5098741;27;20041;-74
2022/08/05 10:07:53;;;;;;;1999.90;999.90;;;24.70;82.10;;;;;;5121406;27;20109;-74
2022/08/05 10:10:35;;;;;;;1999.90;999.90;;;24.70;78.70;;;;;;5116719;27;20048;-74
2022/08/05 10:13:03;;;;;;;1999.90;999.90;;;24.70;72.00;;;;;;5113628;27;20115;-74
2022/08/05 10:15:38;;;;;;;1999.90;999.90;;;24.70;72.00;;;;;;5109910;27;20035;-74
2022/08/05 10:18:15;;;;;;;1999.90;999.90;;;24.60;71.30;;;;;;5104601;27;20054;-74
2022/08/05 10:20:50;;;;;;;1999.90;999.90;;;24.50;69.60;;;;;;5122386;27;20035;-74
2022/08/05 10:23:29;;;;;;;1999.90;999.90;;;24.50;70.90;;;;;;5109622;27;20031;-74
2022/08/05 10:25:56;;;;;;;1999.90;999.90;;;24.60;68.60;;;;;;5105782;27;20051;-74
2022/08/05 10:28:22;;;;;;;1999.90;999.90;;;24.60;68.20;;;;;;5098826;27;20054;-74
2022/08/05 10:30:48;;;;;;;1999.90;999.90;;;24.50;62.50;;;;;;5121384;27;20398;-74
2022/08/05 10:33:13;;;;;;;1999.90;999.90;;;24.50;63.20;;;;;;5088575;27;20043;-74
2022/08/05 10:35:39;;;;;;;1999.90;999.90;;;24.50;64.20;;;;;;5115283;27;20480;-74
2022/08/05 10:38:06;;;;;;;1999.90;999.90;;;24.50;63.70;;;;;;5116962;27;20044;-74
2022/08/05 10:40:36;;;;;;;1999.90;999.90;;;24.40;62.10;;;;;;5130982;27;20055;-74
2022/08/05 10:43:23;;;;;;;1999.90;999.90;;;24.20;60.50;;;;;;5091031;27;20347;-74
2022/08/05 10:45:56;;;;;;;1999.90;999.90;;;24.10;60.90;;;;;;5124683;27;20482;-73
2022/08/05 10:48:30;;;;;;;1999.90;999.90;;;24.10;59.50;;;;;;5131418;27;20038;-74
2022/08/05 10:51:07;;;;;;;1999.90;999.90;;;24.10;62.30;;;;;;5139636;27;20054;-74
2022/08/05 10:53:43;;;;;;;1999.90;999.90;;;24.20;63.00;;;;;;5114926;27;20054;-74
2022/08/05 10:56:23;;;;;;;1999.90;999.90;;;24.20;60.50;;;;;;5133579;27;20487;-73
2022/08/05 10:58:51;;;;;;;1999.90;999.90;;;24.00;60.60;;;;;;5122999;27;20073;-73
2022/08/05 11:01:27;;;;;;;1999.90;999.90;;;23.90;60.00;;;;;;5122353;27;20039;-73
2022/08/05 11:04:22;;;;;;;1999.90;999.90;;;23.80;60.50;;;;;;5113320;27;20054;-74
2022/08/05 11:06:57;;;;;;;1999.90;999.90;;;23.70;61.50;;;;;;5134179;27;20068;-73
2022/08/05 11:09:24;;;;;;;1999.90;999.90;;;23.80;61.90;;;;;;5133387;27;20566;-73
2022/08/05 11:11:52;;;;;;;1999.90;999.90;;;23.90;63.00;;;;;;5137976;27;20513;-74
2022/08/05 11:14:32;;;;;;;1999.90;999.90;;;24.10;62.50;;;;;;5116180;27;20051;-73
2022/08/05 11:17:26;;;;;;;1999.90;999.90;;;24.20;61.90;;;;;;5136388;27;20033;-73
2022/08/05 11:19:57;;;;;;;1999.90;999.90;;;24.20;61.50;;;;;;5128229;27;20047;-74
2022/08/05 11:22:48;;;;;;;1999.90;999.90;;;24.10;63.40;;;;;;5127282;27;20039;-74
2022/08/05 11:25:33;;;;;;;1999.90;999.90;;;24.30;63.00;;;;;;5126190;27;20489;-73
2022/08/05 11:28:11;;;;;;;1999.90;999.90;;;24.40;63.70;;;;;;5121984;27;20039;-73
2022/08/05 11:30:55;;;;;;;1999.90;999.90;;;24.60;63.30;;;;;;5119327;27;20638;-73
2022/08/05 11:33:27;;;;;;;1999.90;999.90;;;24.70;62.60;;;;;;5126188;27;20100;-74
2022/08/05 11:35:55;;;;;;;1999.90;999.90;;;24.40;62.10;;;;;;5126612;27;20035;-73
2022/08/05 11:38:41;;;;;;;1999.90;999.90;;;24.00;62.40;;;;;;5129288;27;20043;-74
2022/08/05 11:41:16;;;;;;;1999.90;999.90;;;23.80;63.80;;;;;;5112085;27;20471;-74
2022/08/05 11:43:52;;;;;;;1999.90;999.90;;;23.70;64.70;;;;;;5126033;27;20486;-74
2022/08/05 11:46:24;;;;;;;1999.90;999.90;;;24.10;66.10;;;;;;5124982;27;20042;-73
2022/08/05 11:48:49;;;;;;;1999.90;999.90;;;24.60;65.80;;;;;;5126005;27;20039;-74
2022/08/05 11:51:15;;;;;;;1999.90;999.90;;;24.50;64.00;;;;;;5126849;27;20080;-74
2022/08/05 11:53:42;;;;;;;1999.90;999.90;;;23.90;65.20;;;;;;5127305;27;20035;-74
2022/08/05 11:56:07;;;;;;;1999.90;999.90;;;23.40;66.10;;;;;;5106590;27;20491;-74
2022/08/05 11:58:35;;;;;;;1999.90;999.90;;;22.90;68.30;;;;;;5127281;27;20043;-74
2022/08/05 12:01:02;;;;;;;1999.90;999.90;;;22.70;70.30;;;;;;5093116;27;20437;-74
2022/08/05 12:03:28;;;;;;;1999.90;999.90;;;22.50;70.60;;;;;;5119295;27;20035;-74
2022/08/05 12:05:58;;;;;;;1999.90;999.90;;;22.50;72.70;;;;;;5135377;27;20467;-74
2022/08/05 12:08:24;;;;;;;1999.90;999.90;;;22.60;71.50;;;;;;5126346;27;20039;-74